This is the latest recevied weather packets stored in our database for station/object EA1RCC-1. If no packets are shown the sender has not sent any weather packets the latest 10 day(s).
| Time | Temp. | Humidity | Pressure | Rain* | Wind** | Luminosity | Snow |
|---|---|---|---|---|---|---|---|
| 1777691461 | 10.56° C | 82% | 1017 hPa | 0 mm | - | - | - |
| 1777684719 | 12.22° C | 82% | 1017 hPa | 0 mm | - | - | - |
| 1777682914 | 10.56° C | 77% | 1017 hPa | 0 mm | - | - | - |
| 1777679041 | 12.78° C | 77% | 1017 hPa | 0 mm | - | - | - |
| 1777665553 | 15° C | 46% | 1018 hPa | 0 mm | - | - | - |
| 1777659021 | 18.33° C | 46% | 1016 hPa | 0 mm | - | - | - |
| 1777658419 | 18.89° C | 46% | 1016 hPa | 0 mm | - | - | - |
| 1777657217 | 20° C | 46% | 1016 hPa | 0 mm | - | - | - |
| 1777650813 | 22.22° C | - | - | 0 mm | - | - | - |
| 1777650213 | 22.22° C | - | - | 0 mm | - | - | - |
| 1777637790 | 20.56° C | 10% | 1017 hPa | 0 mm | - | - | - |
| 1777635253 | 19.44° C | 11% | 1017 hPa | 0 mm | - | - | - |
| 1777633921 | 18.89° C | 11% | 1018 hPa | 0 mm | - | - | - |
| 1777632586 | 18.33° C | 11% | 1018 hPa | 0 mm | - | - | - |
| 1777631985 | 18.33° C | 11% | 1018 hPa | 0 mm | - | - | - |
| 1777626782 | 17.22° C | 11% | 1019 hPa | 0 mm | - | - | - |
| 1777619303 | 12.22° C | 12% | 1019 hPa | 0 mm | - | - | - |
| 1777606288 | 6.67° C | 93% | 1019 hPa | 0 mm | - | - | - |
| 1777605085 | 7.78° C | 93% | 1019 hPa | 0 mm | - | - | - |
| 1777602081 | 8.33° C | 93% | 1018 hPa | 0 mm | - | - | - |
| 1777599674 | 8.89° C | 87% | 1018 hPa | 0 mm | - | - | - |
| 1777597271 | 8.33° C | 87% | 1019 hPa | 0 mm | - | - | - |
| 1777596668 | 8.89° C | 87% | 1019 hPa | 0 mm | - | - | - |
| 1777595465 | 10° C | 87% | 1019 hPa | 0 mm | - | - | - |
| 1777583443 | 12.22° C | 59% | 1018 hPa | 0 mm | - | - | - |
* Rain latest hour (hover to see other rain measurements)
** Current wind speed in m/s (hover to see current wind gust speed)